Time;durP1;ratioP1;P1;durP2;ratioP2;P2;SDS_P1;SDS_P2;PMS_P1;PMS_P2;Temp;Humidity;BMP_temperature;BMP_pressure;BME280_temperature;BME280_humidity;BME280_pressure;Samples;Min_cycle;Max_cycle;Signal;HPM_P1;HPM_P2
2020/12/15 00:01:48;;;;;;;63.83;30.10;;;;;;;8.19;59.63;100413.59;4384354;32;20108;-92
2020/12/15 00:04:13;;;;;;;69.15;28.87;;;;;;;8.12;59.63;100409.38;4397185;32;20466;-95
2020/12/15 00:06:43;;;;;;;70.70;28.87;;;;;;;8.23;59.64;100411.81;4383604;32;20129;-95
2020/12/15 00:09:16;;;;;;;;;;;;;;;8.22;59.64;100418.75;4385079;32;20085;-94
2020/12/15 00:11:42;;;;;;;59.97;25.92;;;;;;;8.04;59.62;100410.31;4422068;32;19972;-94
2020/12/15 00:14:07;;;;;;;61.35;26.52;;;;;;;8.12;59.63;100408.50;4384185;32;20110;-94
2020/12/15 00:16:33;;;;;;;67.35;27.75;;;;;;;7.99;59.63;100398.25;4396460;32;20136;-94
2020/12/15 00:19:01;;;;;;;62.88;27.95;;;;;;;7.82;59.62;100410.56;4385263;32;20118;-95
2020/12/15 00:21:28;;;;;;;70.50;28.25;;;;;;;7.70;59.61;100411.53;4383988;32;20098;-93
2020/12/15 00:23:54;;;;;;;64.72;28.65;;;;;;;7.69;59.61;100407.22;4384423;32;20110;-95
2020/12/15 00:26:20;;;;;;;63.75;28.95;;;;;;;7.52;59.59;100406.50;4396444;32;20153;-93
2020/12/15 00:28:48;;;;;;;60.97;27.30;;;;;;;7.54;59.59;100404.75;4383978;32;20059;-94
2020/12/15 00:31:14;;;;;;;70.45;29.10;;;;;;;7.61;59.61;100398.69;4396880;32;20168;-94
2020/12/15 00:33:39;;;;;;;74.57;29.98;;;;;;;7.54;59.60;100398.72;4385299;32;20156;-94
2020/12/15 00:36:10;;;;;;;61.20;27.75;;;;;;;7.78;59.61;100403.66;4383633;32;20117;-93
2020/12/15 00:38:36;;;;;;;64.22;29.77;;;;;;;7.83;59.62;100406.25;4396679;32;20485;-94
2020/12/15 00:41:07;;;;;;;65.05;28.00;;;;;;;7.66;59.60;100398.62;4383635;32;20106;-94
2020/12/15 00:43:43;;;;;;;69.93;29.58;;;;;;;7.72;59.61;100392.50;4384138;32;20090;-93
2020/12/15 00:46:23;;;;;;;65.97;26.98;;;;;;;7.85;59.62;100394.13;4385387;32;20132;-93
2020/12/15 00:48:51;;;;;;;66.40;30.12;;;;;;;7.74;59.61;100386.44;4384606;32;20093;-93
2020/12/15 00:51:37;;;;;;;69.35;30.70;;;;;;;7.76;59.62;100397.66;4384049;32;20089;-93
2020/12/15 00:54:03;;;;;;;58.30;28.35;;;;;;;7.81;59.61;100393.28;4383396;32;20103;-93
2020/12/15 00:56:29;;;;;;;63.65;29.65;;;;;;;7.97;59.62;100394.81;4408641;32;20098;-93
2020/12/15 00:58:54;;;;;;;65.15;27.87;;;;;;;7.86;59.62;100398.44;4383605;32;20119;-95
2020/12/15 01:01:33;;;;;;;60.42;27.90;;;;;;;7.93;59.62;100384.50;4386984;32;20126;-93
2020/12/15 01:03:59;;;;;;;61.50;27.65;;;;;;;7.99;59.63;100393.06;4387557;32;20137;-94
2020/12/15 01:06:56;;;;;;;63.55;29.10;;;;;;;8.15;59.64;100382.53;4385515;32;20113;-94
2020/12/15 01:09:37;;;;;;;;;;;;;;;;;;;;;
2020/12/15 01:16:00;;;;;;;60.50;28.42;;;;;;;8.05;59.62;100383.53;4321435;33;20717;-93
2020/12/15 01:18:25;;;;;;;73.75;30.00;;;;;;;7.97;59.62;100386.19;4397576;32;20140;-94
2020/12/15 01:20:51;;;;;;;71.40;30.67;;;;;;;7.71;59.61;100383.88;4385797;32;20089;-95
2020/12/15 01:23:16;;;;;;;62.60;27.10;;;;;;;7.60;59.60;100381.41;4385497;32;20106;-95
2020/12/15 01:25:42;;;;;;;67.68;30.80;;;;;;;7.67;59.61;100384.78;4385565;32;20150;-94
2020/12/15 01:28:07;;;;;;;62.83;29.50;;;;;;;7.77;59.62;100385.53;4385477;32;20117;-95
2020/12/15 01:30:33;;;;;;;66.00;27.98;;;;;;;7.75;59.61;100380.38;4386126;32;20097;-96
2020/12/15 01:32:58;;;;;;;55.17;26.85;;;;;;;8.06;59.62;100382.66;4385662;32;20710;-94
2020/12/15 01:35:24;;;;;;;53.00;24.73;;;;;;;7.93;59.62;100380.19;4385617;32;20204;-95
2020/12/15 01:37:49;;;;;;;56.10;26.48;;;;;;;7.92;59.62;100380.22;4385769;32;20110;-96
2020/12/15 01:40:14;;;;;;;53.50;26.25;;;;;;;7.90;59.61;100382.81;4385521;32;20340;-96
2020/12/15 01:42:40;;;;;;;55.97;25.60;;;;;;;7.69;59.60;100388.22;4385711;32;20142;-95
2020/12/15 01:45:06;;;;;;;53.83;24.40;;;;;;;8.00;59.63;100386.16;4387858;32;20483;-95
2020/12/15 01:47:31;;;;;;;57.13;26.30;;;;;;;7.74;59.61;100395.94;4385368;32;20109;-96
2020/12/15 01:49:57;;;;;;;58.65;27.15;;;;;;;7.71;59.61;100396.84;4384974;32;20150;-96
2020/12/15 01:52:22;;;;;;;56.50;26.33;;;;;;;7.89;59.62;100396.66;4385336;32;20102;-96
2020/12/15 01:54:48;;;;;;;57.13;24.90;;;;;;;7.86;59.62;100395.84;4386145;32;20137;-96
2020/12/15 01:57:13;;;;;;;57.67;26.52;;;;;;;8.08;59.63;100392.13;4385347;32;20165;-95
2020/12/15 01:59:38;;;;;;;59.05;27.17;;;;;;;7.95;59.63;100394.00;4388111;32;20480;-94
2020/12/15 02:02:04;;;;;;;55.70;26.30;;;;;;;8.10;59.63;100387.78;4385544;32;20164;-96
2020/12/15 02:04:30;;;;;;;51.63;26.58;;;;;;;7.88;59.62;100381.97;4385468;32;20070;-96
2020/12/15 02:06:55;;;;;;;50.85;24.40;;;;;;;8.13;59.63;100379.97;4385572;32;20113;-96
2020/12/15 02:09:20;;;;;;;54.75;25.52;;;;;;;8.26;59.64;100380.66;4384912;32;20454;-96
2020/12/15 02:11:47;;;;;;;51.67;24.60;;;;;;;7.98;59.62;100381.00;4385315;32;20136;-96
2020/12/15 02:14:13;;;;;;;56.37;24.23;;;;;;;7.93;59.62;100377.59;4387675;32;20100;-94
2020/12/15 02:16:41;;;;;;;51.15;25.08;;;;;;;8.05;59.62;100379.22;4385657;32;20142;-96
2020/12/15 02:19:26;;;;;;;52.33;24.77;;;;;;;8.07;59.63;100372.28;4423887;32;20093;-96
2020/12/15 02:22:02;;;;;;;48.35;21.85;;;;;;;7.85;59.62;100370.78;4389793;32;20098;-96
2020/12/15 02:24:28;;;;;;;52.60;22.62;;;;;;;8.01;59.63;100377.50;4405368;32;20118;-96
2020/12/15 02:26:56;;;;;;;50.10;23.80;;;;;;;7.94;59.62;100387.09;4405737;32;20126;-96
2020/12/15 02:29:22;;;;;;;41.25;20.62;;;;;;;7.85;59.62;100386.34;4392263;32;20058;-96
2020/12/15 02:31:49;;;;;;;49.00;23.30;;;;;;;7.74;59.61;100391.62;4416295;32;20106;-96
2020/12/15 02:34:17;;;;;;;53.53;24.25;;;;;;;7.42;59.59;100384.16;4404793;32;20099;-96
2020/12/15 02:36:43;;;;;;;50.45;23.25;;;;;;;7.50;59.60;100384.94;4404030;32;20096;-96
2020/12/15 02:39:13;;;;;;;52.33;22.45;;;;;;;7.73;59.61;100365.72;4392358;32;20437;-96
2020/12/15 02:41:39;;;;;;;54.20;25.23;;;;;;;7.39;59.58;100377.28;4390793;32;20086;-96
2020/12/15 02:44:05;;;;;;;49.20;23.98;;;;;;;7.44;59.60;100363.44;4401928;32;20132;-96
2020/12/15 02:46:30;;;;;;;55.05;24.73;;;;;;;7.46;59.59;100375.50;4400066;32;20114;-96
2020/12/15 02:48:56;;;;;;;50.25;23.23;;;;;;;7.54;59.59;100375.41;4386941;32;20120;-96
2020/12/15 02:51:22;;;;;;;54.05;23.30;;;;;;;7.58;59.60;100388.34;4386549;32;20114;-95
2020/12/15 02:53:48;;;;;;;47.97;23.02;;;;;;;7.59;59.60;100396.97;4386674;32;20102;-95
2020/12/15 02:56:20;;;;;;;47.22;21.42;;;;;;;7.61;59.60;100390.03;4390186;32;20144;-96
2020/12/15 02:58:48;;;;;;;49.28;22.42;;;;;;;7.90;59.61;100377.62;4392191;32;20120;-96
2020/12/15 03:01:18;;;;;;;47.15;22.08;;;;;;;7.74;59.61;100373.47;4407990;32;20089;-96
2020/12/15 03:03:46;;;;;;;46.03;21.92;;;;;;;7.71;59.61;100383.88;4406505;32;20180;-96
2020/12/15 03:06:13;;;;;;;51.33;24.40;;;;;;;7.82;59.61;100387.25;4405346;32;20105;-96
2020/12/15 03:08:39;;;;;;;46.55;23.48;;;;;;;7.79;59.61;100381.19;4392344;32;20676;-96
2020/12/15 03:11:05;;;;;;;49.85;24.35;;;;;;;7.83;59.61;100380.31;4394071;32;20124;-95
2020/12/15 03:13:30;;;;;;;54.65;24.83;;;;;;;7.92;59.63;100381.06;4391628;32;20129;-95
2020/12/15 03:15:56;;;;;;;50.78;24.90;;;;;;;7.85;59.62;100379.44;4402563;32;20126;-96
2020/12/15 03:18:22;;;;;;;48.92;24.52;;;;;;;7.71;59.61;100373.53;4385971;32;20119;-93
2020/12/15 03:20:48;;;;;;;53.20;25.15;;;;;;;7.67;59.60;100371.84;4384545;32;20145;-94
2020/12/15 03:23:15;;;;;;;57.50;27.10;;;;;;;7.61;59.61;100377.94;4384551;32;20110;-93
2020/12/15 03:25:40;;;;;;;52.17;24.30;;;;;;;7.74;59.61;100381.25;4385143;32;20110;-93
2020/12/15 03:28:06;;;;;;;54.33;24.15;;;;;;;7.68;59.60;100382.19;4384383;32;20168;-93
2020/12/15 03:30:32;;;;;;;56.13;25.70;;;;;;;7.36;59.59;100392.00;4384561;32;20090;-94
2020/12/15 03:32:58;;;;;;;53.83;25.42;;;;;;;7.49;59.60;100395.31;4384756;32;20075;-94
2020/12/15 03:35:23;;;;;;;57.47;26.52;;;;;;;7.74;59.61;100395.94;4384631;32;20150;-95
2020/12/15 03:37:48;;;;;;;54.72;24.25;;;;;;;7.72;59.61;100406.31;4385861;32;20125;-94
2020/12/15 03:40:14;;;;;;;53.92;24.73;;;;;;;7.78;59.61;100398.47;4385215;32;20149;-94
2020/12/15 03:42:39;;;;;;;53.83;25.17;;;;;;;7.83;59.60;100401.91;4384337;32;20145;-92
2020/12/15 03:45:05;;;;;;;53.97;25.42;;;;;;;7.64;59.61;100405.56;4383976;32;20165;-95
2020/12/15 03:47:30;;;;;;;52.22;24.70;;;;;;;7.64;59.61;100400.38;4384529;32;20093;-96
2020/12/15 03:49:56;;;;;;;50.00;23.62;;;;;;;7.73;59.61;100394.22;4384316;32;20141;-95
2020/12/15 03:52:21;;;;;;;57.28;25.65;;;;;;;7.89;59.62;100393.22;4386642;32;20110;-94
2020/12/15 03:54:47;;;;;;;53.05;25.33;;;;;;;7.65;59.60;100394.31;4385088;32;20150;-94
2020/12/15 03:57:12;;;;;;;47.42;24.00;;;;;;;7.89;59.62;100396.66;4384330;32;20126;-95
2020/12/15 03:59:37;;;;;;;55.67;25.15;;;;;;;7.77;59.61;100396.78;4384506;32;20109;-96
2020/12/15 04:02:03;;;;;;;50.40;24.60;;;;;;;7.80;59.61;100403.66;4384348;32;20171;-96
2020/12/15 04:04:29;;;;;;;50.72;24.37;;;;;;;7.92;59.62;100412.16;4396765;32;20114;-94
2020/12/15 04:06:54;;;;;;;49.83;23.77;;;;;;;7.84;59.62;100415.72;4385425;32;20098;-95
2020/12/15 04:09:19;;;;;;;48.60;23.08;;;;;;;7.70;59.61;100418.44;4383930;32;20102;-93
2020/12/15 04:11:45;;;;;;;50.20;23.67;;;;;;;7.74;59.61;100416.69;4384190;32;20098;-95
2020/12/15 04:14:10;;;;;;;51.05;24.45;;;;;;;7.82;59.61;100414.88;4384022;32;20148;-94
2020/12/15 04:16:36;;;;;;;45.35;23.70;;;;;;;8.05;59.62;100412.06;4383917;32;20140;-94
2020/12/15 04:19:01;;;;;;;48.60;22.98;;;;;;;7.86;59.62;100406.19;4383957;32;20122;-94
2020/12/15 04:21:28;;;;;;;46.65;23.60;;;;;;;7.70;59.61;100416.72;4385833;32;20102;-96
2020/12/15 04:23:54;;;;;;;47.80;22.33;;;;;;;7.69;59.60;100419.31;4384780;32;20136;-95
2020/12/15 04:26:19;;;;;;;44.53;21.85;;;;;;;7.78;59.61;100414.03;4396557;32;20404;-95
2020/12/15 04:28:45;;;;;;;43.70;21.40;;;;;;;7.79;59.61;100412.31;4383914;32;20117;-95
2020/12/15 04:31:10;;;;;;;41.17;20.95;;;;;;;7.71;59.61;100407.22;4396222;32;20122;-96
2020/12/15 04:33:36;;;;;;;38.42;18.58;;;;;;;7.65;59.60;100412.44;4384936;32;20106;-96
2020/12/15 04:36:13;;;;;;;39.95;18.77;;;;;;;7.66;59.60;100411.56;4386765;32;20113;-95
2020/12/15 04:38:38;;;;;;;37.40;19.35;;;;;;;7.54;59.59;100409.09;4386221;32;20098;-93
2020/12/15 04:41:04;;;;;;;37.70;18.73;;;;;;;7.60;59.60;100403.88;4385972;32;20153;-94
2020/12/15 04:43:29;;;;;;;33.63;17.55;;;;;;;7.91;59.61;100407.00;4385998;32;20161;-93
2020/12/15 04:45:55;;;;;;;35.55;16.50;;;;;;;7.99;59.63;100410.37;4385786;32;20097;-93
2020/12/15 04:48:24;;;;;;;30.65;16.67;;;;;;;7.96;59.62;100407.81;4386554;32;20141;-94
2020/12/15 04:50:50;;;;;;;30.58;15.82;;;;;;;7.93;59.62;100421.66;4386327;32;20132;-94
2020/12/15 04:53:19;;;;;;;31.45;16.35;;;;;;;7.84;59.62;100424.38;4385826;32;20114;-93
2020/12/15 04:55:44;;;;;;;30.12;16.42;;;;;;;7.55;59.60;100421.16;4385732;32;20143;-94
2020/12/15 04:58:09;;;;;;;28.87;14.80;;;;;;;7.65;59.61;100423.69;4385813;32;20742;-95
2020/12/15 05:00:35;;;;;;;38.30;16.80;;;;;;;7.72;59.61;100424.47;4386475;32;20422;-92
2020/12/15 05:03:02;;;;;;;39.08;19.52;;;;;;;7.84;59.62;100428.69;4386997;32;20114;-94
2020/12/15 05:09:06;;;;;;;29.65;15.68;;;;;;;7.66;59.60;100424.53;4364222;32;20451;-93
2020/12/15 05:11:33;;;;;;;30.88;15.27;;;;;;;7.60;59.60;100434.97;4390325;32;20145;-93
2020/12/15 05:13:59;;;;;;;35.83;17.05;;;;;;;7.54;59.59;100435.00;4386307;32;20113;-95
2020/12/15 05:16:35;;;;;;;31.65;15.95;;;;;;;7.45;59.59;100433.34;4385469;32;20144;-92
2020/12/15 05:19:04;;;;;;;31.12;16.10;;;;;;;7.46;59.59;100440.25;4386951;32;20500;-92
2020/12/15 05:21:29;;;;;;;32.63;15.48;;;;;;;7.53;59.59;100439.31;4385529;32;20106;-92
2020/12/15 05:23:55;;;;;;;35.58;17.05;;;;;;;7.46;59.59;100442.84;4385319;32;20145;-93
2020/12/15 05:26:24;;;;;;;28.90;15.23;;;;;;;7.13;59.58;100445.69;4385702;32;20116;-93
2020/12/15 05:29:16;;;;;;;28.75;15.07;;;;;;;7.17;59.57;100440.47;4385883;32;20101;-94
2020/12/15 05:31:41;;;;;;;36.75;17.17;;;;;;;7.21;59.58;100439.59;4388627;32;20149;-94
2020/12/15 05:34:07;;;;;;;30.62;15.85;;;;;;;7.26;59.58;100436.94;4385568;32;20121;-93
2020/12/15 05:36:33;;;;;;;37.05;16.00;;;;;;;7.40;59.59;100440.31;4385410;32;20102;-93
2020/12/15 05:39:06;;;;;;;34.00;17.40;;;;;;;7.47;59.59;100438.53;4385060;32;20145;-94
2020/12/15 05:41:32;;;;;;;29.37;15.65;;;;;;;7.58;59.60;100441.91;4385729;32;20792;-94
2020/12/15 05:43:58;;;;;;;30.00;15.05;;;;;;;7.77;59.61;100435.62;4386003;32;20110;-94
2020/12/15 05:46:24;;;;;;;32.25;15.57;;;;;;;7.22;59.58;100437.84;4387295;32;20089;-94
2020/12/15 05:48:54;;;;;;;28.38;14.95;;;;;;;7.47;59.60;100439.38;4385658;32;20097;-94
2020/12/15 05:51:19;;;;;;;28.17;15.50;;;;;;;7.54;59.60;100440.19;4389810;32;20940;-96
2020/12/15 05:53:49;;;;;;;31.98;16.35;;;;;;;7.52;59.59;100436.75;4393197;32;20093;-96
2020/12/15 05:56:21;;;;;;;29.55;15.15;;;;;;;7.44;59.59;100439.41;4411086;32;20098;-94
2020/12/15 05:58:55;;;;;;;29.42;14.48;;;;;;;7.51;59.60;100440.19;4385972;32;20109;-94
2020/12/15 06:01:20;;;;;;;29.58;14.10;;;;;;;7.49;59.60;100447.13;4386160;32;20737;-93
2020/12/15 06:03:55;;;;;;;31.37;14.77;;;;;;;7.46;59.59;100449.75;4384959;32;20110;-92
2020/12/15 06:06:22;;;;;;;30.60;15.65;;;;;;;7.53;59.59;100448.81;4385550;32;20094;-93
2020/12/15 06:08:48;;;;;;;35.35;17.20;;;;;;;7.54;59.59;100442.75;4385676;32;20098;-93
2020/12/15 06:11:13;;;;;;;35.70;18.20;;;;;;;7.47;59.60;100441.97;4385404;32;20110;-94
2020/12/15 06:13:40;;;;;;;33.90;16.73;;;;;;;7.64;59.60;100450.47;4385675;32;20121;-93
2020/12/15 06:16:05;;;;;;;36.92;17.80;;;;;;;7.63;59.61;100455.66;4385518;32;20102;-95
2020/12/15 06:18:31;;;;;;;32.58;16.27;;;;;;;7.62;59.61;100459.12;4385334;32;20136;-95
2020/12/15 06:20:56;;;;;;;34.22;17.20;;;;;;;7.78;59.61;100463.28;4385147;32;20136;-94
2020/12/15 06:23:22;;;;;;;33.92;16.55;;;;;;;7.82;59.61;100466.72;4384361;32;27391;-95
2020/12/15 06:25:47;;;;;;;34.28;15.98;;;;;;;8.01;59.62;100463.06;4384887;32;20928;-93
2020/12/15 06:28:13;;;;;;;31.60;16.08;;;;;;;7.85;59.62;100464.97;4385772;32;20101;-94
2020/12/15 06:30:42;;;;;;;31.87;16.27;;;;;;;7.23;59.58;100460.28;4385349;32;20145;-94
2020/12/15 06:33:09;;;;;;;30.05;15.85;;;;;;;7.36;59.59;100456.75;4385497;32;20085;-93
2020/12/15 06:35:35;;;;;;;29.83;15.07;;;;;;;7.49;59.60;100460.09;4385559;32;20105;-94
2020/12/15 06:38:01;;;;;;;33.28;16.48;;;;;;;7.60;59.60;100458.28;4397803;32;20445;-93
2020/12/15 06:40:38;;;;;;;30.62;13.93;;;;;;;7.82;59.61;100443.41;4385466;32;20545;-95
2020/12/15 06:43:03;;;;;;;30.17;15.10;;;;;;;7.60;59.60;100442.72;4385484;32;20109;-93
2020/12/15 06:45:30;;;;;;;35.20;16.20;;;;;;;7.46;59.59;100453.19;4384803;32;22054;-93
2020/12/15 06:48:00;;;;;;;32.75;16.05;;;;;;;7.30;59.59;100443.81;4385092;32;20094;-95
2020/12/15 06:50:25;;;;;;;35.22;16.70;;;;;;;7.42;59.59;100438.56;4385434;32;20141;-94
2020/12/15 06:52:51;;;;;;;30.12;15.85;;;;;;;7.03;59.57;100437.97;4385109;32;20459;-93
2020/12/15 06:55:29;;;;;;;35.20;17.17;;;;;;;7.31;59.58;100433.44;4385417;32;20117;-94
2020/12/15 06:57:59;;;;;;;35.10;16.12;;;;;;;7.00;59.57;100431.97;4385350;32;20094;-93
2020/12/15 07:00:31;;;;;;;;;;;;;;;7.25;59.59;100433.50;4385658;32;20468;-92
2020/12/15 07:02:57;;;;;;;32.35;15.50;;;;;;;7.27;59.58;100431.75;4410176;32;20038;-93
2020/12/15 07:05:26;;;;;;;32.15;17.08;;;;;;;7.34;59.59;100435.19;4384568;32;23829;-92
2020/12/15 07:08:05;;;;;;;40.92;17.85;;;;;;;7.27;59.58;100449.03;4384924;32;20076;-93
2020/12/15 07:10:30;;;;;;;37.78;17.83;;;;;;;6.79;59.55;100448.47;4385156;32;20459;-94
2020/12/15 07:12:59;;;;;;;37.97;16.02;;;;;;;7.08;59.57;100443.97;4384263;32;26758;-93
2020/12/15 07:15:24;;;;;;;38.35;16.92;;;;;;;7.15;59.58;100439.63;4385520;32;20436;-92
2020/12/15 07:17:50;;;;;;;38.90;16.85;;;;;;;7.08;59.57;100449.16;4384817;32;20116;-92
2020/12/15 07:20:17;;;;;;;37.42;17.52;;;;;;;6.89;59.56;100452.75;4385122;32;20121;-92
2020/12/15 07:22:42;;;;;;;35.78;15.93;;;;;;;6.97;59.57;100450.97;4383451;32;20115;-92
2020/12/15 07:25:08;;;;;;;40.75;16.23;;;;;;;7.08;59.57;100449.16;4382675;32;20110;-92
2020/12/15 07:27:38;;;;;;;39.35;16.77;;;;;;;6.69;59.55;100459.75;4383031;32;20152;-92
2020/12/15 07:30:07;;;;;;;36.90;15.73;;;;;;;7.17;59.57;100460.34;4382734;32;20133;-91
2020/12/15 07:32:36;;;;;;;37.10;17.00;;;;;;;7.06;59.57;100461.25;4383194;32;20102;-91
2020/12/15 07:35:07;;;;;;;33.45;14.60;;;;;;;7.08;59.57;100462.09;4384342;32;20098;-92
2020/12/15 07:37:42;;;;;;;34.90;15.65;;;;;;;6.76;59.55;100464.03;4384706;32;20105;-91
2020/12/15 07:40:09;;;;;;;34.75;15.32;;;;;;;6.60;59.55;100467.53;4384383;32;20098;-91
2020/12/15 07:42:35;;;;;;;40.25;17.15;;;;;;;6.68;59.55;100478.72;4384592;32;20109;-91
2020/12/15 07:45:03;;;;;;;37.78;15.80;;;;;;;6.83;59.56;100467.44;4384450;32;20471;-91
2020/12/15 07:47:28;;;;;;;40.55;17.48;;;;;;;6.23;59.52;100478.03;4384146;32;20112;-88
2020/12/15 07:49:55;;;;;;;41.65;17.00;;;;;;;6.88;59.56;100465.69;4383925;32;20154;-91
2020/12/15 07:52:30;;;;;;;37.42;15.85;;;;;;;6.72;59.56;100468.34;4385025;32;20129;-91
2020/12/15 07:55:00;;;;;;;42.60;16.90;;;;;;;6.76;59.56;100471.78;4382968;32;20098;-89
2020/12/15 07:57:27;;;;;;;38.35;15.57;;;;;;;6.76;59.55;100470.06;4383856;32;20076;-92
2020/12/15 07:59:52;;;;;;;35.15;15.23;;;;;;;6.70;59.55;100467.50;4384081;32;20097;-91
2020/12/15 08:02:18;;;;;;;34.15;15.98;;;;;;;6.36;59.54;100476.25;4382918;32;26599;-91
2020/12/15 08:04:43;;;;;;;38.60;14.65;;;;;;;6.25;59.53;100480.59;4383220;32;21459;-90
2020/12/15 08:07:10;;;;;;;33.25;14.63;;;;;;;6.78;59.56;100481.25;4383974;32;20149;-90
2020/12/15 08:09:38;;;;;;;36.40;15.65;;;;;;;6.96;59.57;100482.88;4384836;32;20070;-90
2020/12/15 08:12:06;;;;;;;38.13;15.82;;;;;;;7.01;59.57;100488.03;4388802;32;20764;-89
2020/12/15 08:14:31;;;;;;;40.38;17.15;;;;;;;7.00;59.57;100488.91;4389311;32;20122;-89
2020/12/15 08:16:56;;;;;;;39.92;17.30;;;;;;;6.86;59.56;100503.62;4388052;32;20112;-89
2020/12/15 08:19:23;;;;;;;36.17;16.70;;;;;;;6.85;59.56;100495.00;4388100;32;20133;-91
2020/12/15 08:21:50;;;;;;;35.15;14.63;;;;;;;6.85;59.56;100499.31;4387916;32;20129;-90
2020/12/15 08:24:18;;;;;;;36.45;15.75;;;;;;;6.89;59.57;100501.91;4387245;32;20086;-91
2020/12/15 08:26:43;;;;;;;33.53;14.75;;;;;;;6.81;59.56;100506.25;4387774;32;20153;-91
2020/12/15 08:29:10;;;;;;;38.47;15.07;;;;;;;6.90;59.57;100507.94;4387629;32;20487;-90
2020/12/15 08:31:37;;;;;;;40.17;16.27;;;;;;;7.02;59.56;100502.69;4387884;32;20166;-91
2020/12/15 08:34:15;;;;;;;33.60;13.00;;;;;;;6.92;59.56;100498.44;4387526;32;20083;-89
2020/12/15 08:36:45;;;;;;;33.67;13.85;;;;;;;6.03;59.51;100510.81;4400437;32;20447;-89
2020/12/15 08:39:11;;;;;;;35.53;16.42;;;;;;;6.75;59.55;100506.28;4387071;32;20106;-90
2020/12/15 08:41:53;;;;;;;29.90;12.35;;;;;;;6.78;59.55;100504.53;4387473;32;20109;-89
2020/12/15 08:44:19;;;;;;;30.62;13.00;;;;;;;6.37;59.53;100507.28;4401178;32;20129;-89
2020/12/15 08:46:45;;;;;;;31.05;12.60;;;;;;;6.29;59.53;100521.09;4387963;32;20139;-90
2020/12/15 08:49:13;;;;;;;32.05;14.20;;;;;;;6.68;59.55;100520.12;4388052;32;20102;-90
2020/12/15 08:51:40;;;;;;;33.60;15.52;;;;;;;6.54;59.54;100511.53;4387755;32;20633;-91
2020/12/15 08:54:08;;;;;;;29.27;12.40;;;;;;;6.53;59.54;100509.81;4400590;32;20086;-92
2020/12/15 08:56:33;;;;;;;25.65;12.48;;;;;;;6.59;59.55;100504.63;4387394;32;20109;-90
2020/12/15 08:59:11;;;;;;;29.02;12.10;;;;;;;6.38;59.53;100518.47;4387512;32;20169;-92
2020/12/15 09:01:37;;;;;;;31.55;11.95;;;;;;;6.63;59.54;100519.28;4388199;32;20110;-92
2020/12/15 09:04:02;;;;;;;35.20;12.57;;;;;;;6.31;59.53;100522.81;4387875;32;20110;-90
2020/12/15 09:06:34;;;;;;;32.90;13.57;;;;;;;6.80;59.55;100526.97;4399603;32;20401;-89
2020/12/15 09:09:00;;;;;;;29.00;11.52;;;;;;;6.74;59.56;100522.69;4387301;32;20132;-90
2020/12/15 09:11:25;;;;;;;31.27;13.52;;;;;;;6.97;59.57;100523.44;4398978;32;30753;-92
2020/12/15 09:14:01;;;;;;;28.60;12.15;;;;;;;7.04;59.57;100517.34;4387111;32;20131;-90
2020/12/15 09:16:34;;;;;;;35.47;14.25;;;;;;;7.17;59.57;100523.34;4387461;32;20121;-90
2020/12/15 09:19:16;;;;;;;32.38;13.62;;;;;;;7.03;59.58;100531.16;4388200;32;20171;-91
2020/12/15 09:21:42;;;;;;;29.92;12.75;;;;;;;7.09;59.58;100518.19;4385272;32;20136;-91
2020/12/15 09:24:08;;;;;;;33.83;16.15;;;;;;;7.25;59.59;100525.88;4384148;32;20094;-90
2020/12/15 09:26:36;;;;;;;34.47;15.15;;;;;;;7.19;59.58;100519.00;4384034;32;20086;-91
2020/12/15 09:29:08;;;;;;;35.35;14.38;;;;;;;7.02;59.57;100510.47;4384422;32;20153;-92
2020/12/15 09:31:34;;;;;;;30.65;13.45;;;;;;;7.29;59.59;100512.03;4384351;32;20114;-91
2020/12/15 09:33:59;;;;;;;33.83;13.80;;;;;;;7.20;59.58;100501.75;4384746;32;20153;-90
2020/12/15 09:36:25;;;;;;;37.70;16.90;;;;;;;7.29;59.58;100509.44;4384037;32;20132;-90
2020/12/15 09:38:50;;;;;;;33.35;13.40;;;;;;;7.32;59.58;100509.41;4397678;32;20109;-90
2020/12/15 09:41:15;;;;;;;35.70;13.88;;;;;;;7.36;59.59;100516.31;4396571;32;20117;-92
2020/12/15 09:43:41;;;;;;;35.30;15.45;;;;;;;7.35;59.59;100515.47;4384100;32;20133;-90
2020/12/15 09:46:06;;;;;;;37.85;14.57;;;;;;;7.02;59.57;100521.66;4384250;32;20146;-91
2020/12/15 09:48:32;;;;;;;33.78;14.15;;;;;;;7.06;59.57;100515.59;4384145;32;20134;-91
2020/12/15 09:50:58;;;;;;;38.53;14.23;;;;;;;7.33;59.59;100518.91;4383932;32;20260;-92
2020/12/15 09:53:24;;;;;;;42.28;16.48;;;;;;;7.34;59.59;100511.16;4384147;32;20157;-91
2020/12/15 09:55:49;;;;;;;41.35;15.30;;;;;;;7.28;59.58;100516.34;4383942;32;20140;-90
2020/12/15 09:58:15;;;;;;;37.05;15.25;;;;;;;7.41;59.60;100517.12;4384154;32;20118;-91
2020/12/15 10:00:40;;;;;;;35.67;14.73;;;;;;;7.30;59.58;100524.97;4383691;32;24286;-92
2020/12/15 10:03:06;;;;;;;42.17;17.65;;;;;;;7.50;59.60;100509.28;4384194;32;29255;-92
2020/12/15 10:05:31;;;;;;;44.10;17.15;;;;;;;7.22;59.58;100508.63;4383687;32;30457;-91
2020/12/15 10:07:56;;;;;;;39.97;16.95;;;;;;;7.53;59.59;100509.25;4384246;32;20144;-90
2020/12/15 10:10:22;;;;;;;32.55;13.85;;;;;;;7.57;59.60;100507.50;4384451;32;28959;-90
2020/12/15 10:12:47;;;;;;;33.40;13.45;;;;;;;7.31;59.58;100510.28;4383991;32;24079;-91
2020/12/15 10:15:15;;;;;;;39.63;18.27;;;;;;;7.27;59.59;100517.22;4384665;32;20356;-88
2020/12/15 10:17:41;;;;;;;35.33;13.57;;;;;;;7.31;59.58;100515.47;4385409;32;20129;-90
2020/12/15 10:20:06;;;;;;;36.90;13.90;;;;;;;7.50;59.60;100501.50;4397823;32;20106;-90
2020/12/15 10:22:32;;;;;;;35.15;14.27;;;;;;;7.52;59.60;100498.91;4397430;32;20116;-88
2020/12/15 10:25:00;;;;;;;30.70;12.90;;;;;;;7.53;59.60;100498.03;4385094;32;20086;-90
2020/12/15 10:27:28;;;;;;;30.90;12.48;;;;;;;7.64;59.60;100499.69;4385252;32;20106;-89
2020/12/15 10:29:54;;;;;;;31.27;13.07;;;;;;;7.52;59.59;100499.78;4384252;32;22461;-88
2020/12/15 10:32:19;;;;;;;28.20;12.25;;;;;;;7.43;59.59;100496.41;4383964;32;20203;-90
2020/12/15 10:34:45;;;;;;;28.25;11.77;;;;;;;7.30;59.58;100512.00;4384614;32;20097;-89
2020/12/15 10:37:11;;;;;;;31.08;13.80;;;;;;;7.54;59.59;100502.34;4384806;32;20105;-90
2020/12/15 10:39:39;;;;;;;25.88;10.40;;;;;;;7.57;59.60;100502.31;4384017;32;33143;-90
2020/12/15 10:42:05;;;;;;;28.15;11.12;;;;;;;7.43;59.59;100502.44;4384946;32;20113;-90
2020/12/15 10:44:30;;;;;;;31.55;12.82;;;;;;;7.72;59.61;100501.34;4384172;32;20082;-90
2020/12/15 10:46:59;;;;;;;29.85;11.07;;;;;;;7.59;59.60;100496.28;4397412;32;20118;-89
2020/12/15 10:49:28;;;;;;;30.70;13.77;;;;;;;7.46;59.59;100499.81;4385016;32;20102;-90
2020/12/15 10:51:56;;;;;;;26.27;11.38;;;;;;;7.60;59.60;100498.00;4385447;32;20158;-90
2020/12/15 10:54:25;;;;;;;24.48;10.52;;;;;;;7.70;59.61;100488.41;4384970;32;20665;-90
2020/12/15 10:56:51;;;;;;;27.35;11.57;;;;;;;7.60;59.60;100485.03;4384677;32;20097;-90
2020/12/15 10:59:16;;;;;;;26.70;10.60;;;;;;;7.88;59.62;100492.56;4392725;32;20131;-90
2020/12/15 11:01:42;;;;;;;33.35;16.37;;;;;;;7.68;59.60;100487.56;4384412;32;20090;-90
2020/12/15 11:04:08;;;;;;;29.67;11.68;;;;;;;7.23;59.58;100489.62;4384535;32;20172;-90
2020/12/15 11:06:36;;;;;;;24.85;10.73;;;;;;;7.34;59.59;100489.56;4384585;32;20178;-92
2020/12/15 11:09:02;;;;;;;28.98;13.05;;;;;;;7.67;59.60;100489.28;4386131;32;20164;-91
2020/12/15 11:11:27;;;;;;;32.67;14.07;;;;;;;7.78;59.61;100489.19;4384599;32;20154;-89
2020/12/15 11:13:53;;;;;;;38.42;19.42;;;;;;;7.49;59.60;100483.41;4384528;32;20149;-92
2020/12/15 11:16:21;;;;;;;36.33;15.43;;;;;;;7.54;59.61;100485.06;4396739;32;20148;-92
2020/12/15 11:18:47;;;;;;;39.22;17.70;;;;;;;7.64;59.60;100481.56;4384511;32;21379;-92
2020/12/15 11:21:13;;;;;;;81.15;65.00;;;;;;;7.60;59.60;100485.03;4384744;32;20120;-91
2020/12/15 11:23:38;;;;;;;37.60;17.08;;;;;;;7.65;59.60;100479.81;4384897;32;20110;-89
2020/12/15 11:26:04;;;;;;;35.63;15.70;;;;;;;7.55;59.60;100471.25;4385108;32;20128;-90
2020/12/15 11:28:29;;;;;;;31.30;14.38;;;;;;;7.48;59.60;100467.00;4384480;32;20196;-90